Time;durP1;ratioP1;P1;durP2;ratioP2;P2;SDS_P1;SDS_P2;PMS_P1;PMS_P2;Temp;Humidity;BMP_temperature;BMP_pressure;BME280_temperature;BME280_humidity;BME280_pressure;Samples;Min_cycle;Max_cycle;Signal;HPM_P1;HPM_P2
2023/01/06 00:02:17;;;;;;;0.20;0.20;;;;;;;;;;4936238;29;20254;-68
2023/01/06 00:04:43;;;;;;;0.17;0.17;;;;;;;;;;4946789;29;20210;-68
2023/01/06 00:07:13;;;;;;;0.17;0.17;;;;;;;;;;4936173;29;20266;-68
2023/01/06 00:09:39;;;;;;;0.10;0.10;;;;;;;;;;4946963;29;20249;-66
2023/01/06 00:12:07;;;;;;;0.20;0.20;;;;;;;;;;4936231;29;20263;-67
2023/01/06 00:14:34;;;;;;;0.10;0.10;;;;;;;;;;4946971;29;20456;-67
2023/01/06 00:17:01;;;;;;;0.10;0.10;;;;;;;;;;4936049;29;20246;-68
2023/01/06 00:19:27;;;;;;;0.10;0.10;;;;;;;;;;4945839;29;20574;-68
2023/01/06 00:21:53;;;;;;;0.20;0.20;;;;;;;;;;4936130;29;20495;-68
2023/01/06 00:24:20;;;;;;;0.20;0.20;;;;;;;;;;4946623;29;20465;-68
2023/01/06 00:26:46;;;;;;;0.20;0.20;;;;;;;;;;4936036;29;20501;-68
2023/01/06 00:29:12;;;;;;;0.10;0.10;;;;;;;;;;4946515;29;20456;-68
2023/01/06 00:31:40;;;;;;;0.20;0.20;;;;;;;;;;4935955;29;20253;-67
2023/01/06 00:34:06;;;;;;;0.10;0.10;;;;;;;;;;4946461;29;20207;-67
2023/01/06 00:36:33;;;;;;;0.20;0.20;;;;;;;;;;4936127;29;20259;-68
2023/01/06 00:38:59;;;;;;;0.20;0.20;;;;;;;;;;4946372;29;20277;-67
2023/01/06 00:44:10;;;;;;;0.20;0.20;;;;;;;;;;4946124;29;20198;-67
2023/01/06 00:46:36;;;;;;;0.20;0.20;;;;;;;;;;4935831;29;20248;-68
2023/01/06 00:49:05;;;;;;;0.20;0.20;;;;;;;;;;4946250;29;20281;-66
2023/01/06 00:51:31;;;;;;;0.20;0.20;;;;;;;;;;4935689;29;20316;-67
2023/01/06 00:53:59;;;;;;;0.10;0.10;;;;;;;;;;4946173;29;20210;-67
2023/01/06 00:56:25;;;;;;;0.10;0.10;;;;;;;;;;4935735;29;20314;-67
2023/01/06 00:58:51;;;;;;;0.20;0.20;;;;;;;;;;4945998;29;20437;-68
2023/01/06 01:01:18;;;;;;;0.20;0.20;;;;;;;;;;4935954;29;20245;-68
2023/01/06 01:03:44;;;;;;;0.10;0.10;;;;;;;;;;4945686;29;20209;-68
2023/01/06 01:06:12;;;;;;;0.17;0.17;;;;;;;;;;4935959;29;20581;-67
2023/01/06 01:08:38;;;;;;;0.20;0.20;;;;;;;;;;4945867;29;20214;-67
2023/01/06 01:11:05;;;;;;;0.30;0.30;;;;;;;;;;4935962;29;20290;-67
2023/01/06 01:13:31;;;;;;;0.20;0.20;;;;;;;;;;4945472;29;20217;-67
2023/01/06 01:16:02;;;;;;;0.20;0.20;;;;;;;;;;4935945;29;20249;-67
2023/01/06 01:18:29;;;;;;;0.20;0.20;;;;;;;;;;4945721;29;20386;-67
2023/01/06 01:20:55;;;;;;;0.20;0.20;;;;;;;;;;4935960;29;20253;-67
2023/01/06 01:23:23;;;;;;;0.20;0.20;;;;;;;;;;4945233;29;20210;-67
2023/01/06 01:25:49;;;;;;;0.20;0.20;;;;;;;;;;4935803;29;20303;-68
2023/01/06 01:28:15;;;;;;;0.20;0.20;;;;;;;;;;4945363;29;20287;-67
2023/01/06 01:30:42;;;;;;;0.20;0.20;;;;;;;;;;4938503;29;20258;-67
2023/01/06 01:33:08;;;;;;;0.20;0.20;;;;;;;;;;4948924;29;20282;-68
2023/01/06 01:35:34;;;;;;;0.10;0.10;;;;;;;;;;4939607;29;20250;-67
2023/01/06 01:38:01;;;;;;;0.20;0.20;;;;;;;;;;4948708;29;20238;-67
2023/01/06 01:40:28;;;;;;;0.10;0.10;;;;;;;;;;4939643;29;20255;-68
2023/01/06 01:42:55;;;;;;;0.10;0.10;;;;;;;;;;4948702;29;20211;-67
2023/01/06 01:45:23;;;;;;;0.13;0.13;;;;;;;;;;4939796;29;20407;-67
2023/01/06 01:47:51;;;;;;;0.20;0.20;;;;;;;;;;4948833;29;20630;-68
2023/01/06 01:50:21;;;;;;;0.20;0.20;;;;;;;;;;4939912;29;20253;-67
2023/01/06 01:52:49;;;;;;;0.20;0.20;;;;;;;;;;4948494;29;20256;-67
2023/01/06 01:55:16;;;;;;;0.20;0.20;;;;;;;;;;4939419;29;20280;-68
2023/01/06 01:57:47;;;;;;;0.20;0.20;;;;;;;;;;4948293;29;20256;-67
2023/01/06 02:00:13;;;;;;;0.20;0.20;;;;;;;;;;4939603;29;20343;-67
2023/01/06 02:02:40;;;;;;;0.10;0.10;;;;;;;;;;4948353;29;20221;-68
2023/01/06 02:05:07;;;;;;;0.17;0.17;;;;;;;;;;4946443;29;20281;-67
2023/01/06 02:07:33;;;;;;;0.20;0.20;;;;;;;;;;4948101;29;20221;-68
2023/01/06 02:10:05;;;;;;;0.20;0.20;;;;;;;;;;4948953;29;20209;-68
2023/01/06 02:12:31;;;;;;;0.20;0.20;;;;;;;;;;4938420;29;20303;-67
2023/01/06 02:14:59;;;;;;;0.20;0.20;;;;;;;;;;4948829;29;20210;-67
2023/01/06 02:17:36;;;;;;;0.20;0.20;;;;;;;;;;4938216;29;20255;-68
2023/01/06 02:20:33;;;;;;;0.10;0.10;;;;;;;;;;4949031;29;20235;-67
2023/01/06 02:23:25;;;;;;;0.10;0.10;;;;;;;;;;4946987;29;20290;-68
2023/01/06 02:26:14;;;;;;;0.10;0.10;;;;;;;;;;4938641;29;20249;-68
2023/01/06 02:28:54;;;;;;;0.20;0.20;;;;;;;;;;4948425;29;20522;-68
2023/01/06 02:31:30;;;;;;;0.20;0.20;;;;;;;;;;4937975;29;20246;-68
2023/01/06 02:33:58;;;;;;;0.20;0.20;;;;;;;;;;4948176;29;20205;-68
2023/01/06 02:36:30;;;;;;;0.20;0.20;;;;;;;;;;4938186;29;20459;-67
2023/01/06 02:39:01;;;;;;;1.13;1.13;;;;;;;;;;4948426;29;20453;-67
2023/01/06 02:41:30;;;;;;;0.20;0.20;;;;;;;;;;4937325;29;20683;-68
2023/01/06 02:44:00;;;;;;;0.10;0.10;;;;;;;;;;4948301;29;20279;-67
2023/01/06 02:46:35;;;;;;;0.10;0.10;;;;;;;;;;4937776;29;20244;-68
2023/01/06 02:49:09;;;;;;;0.20;0.20;;;;;;;;;;4948092;29;20523;-67
2023/01/06 02:51:40;;;;;;;0.20;0.20;;;;;;;;;;4937794;29;20318;-67
2023/01/06 02:54:09;;;;;;;0.20;0.20;;;;;;;;;;4948216;29;20211;-67
2023/01/06 02:56:37;;;;;;;0.20;0.20;;;;;;;;;;4937792;29;20549;-67
2023/01/06 02:59:06;;;;;;;0.20;0.20;;;;;;;;;;4948070;29;20234;-66
2023/01/06 03:01:36;;;;;;;0.20;0.20;;;;;;;;;;4937694;29;20451;-67
2023/01/06 03:04:04;;;;;;;0.10;0.10;;;;;;;;;;4947665;29;20269;-67
2023/01/06 03:06:31;;;;;;;0.10;0.10;;;;;;;;;;4937608;29;20301;-68
2023/01/06 03:08:58;;;;;;;0.20;0.20;;;;;;;;;;4947848;29;20277;-68
2023/01/06 03:11:26;;;;;;;0.20;0.20;;;;;;;;;;4937480;29;20256;-67
2023/01/06 03:13:55;;;;;;;0.20;0.20;;;;;;;;;;4947422;29;20279;-69
2023/01/06 03:16:22;;;;;;;0.20;0.20;;;;;;;;;;4937218;29;20255;-67
2023/01/06 03:18:51;;;;;;;0.20;0.20;;;;;;;;;;4947243;29;20208;-67
2023/01/06 03:21:18;;;;;;;0.20;0.20;;;;;;;;;;4937396;29;20268;-68
2023/01/06 03:23:46;;;;;;;0.20;0.20;;;;;;;;;;4947373;29;20250;-67
2023/01/06 03:26:12;;;;;;;0.20;0.20;;;;;;;;;;4937407;29;20482;-68
2023/01/06 03:28:39;;;;;;;0.20;0.20;;;;;;;;;;4947062;29;20207;-67
2023/01/06 03:31:14;;;;;;;0.20;0.20;;;;;;;;;;4937084;29;20270;-68
2023/01/06 03:33:48;;;;;;;0.20;0.20;;;;;;;;;;4946913;29;20205;-68
2023/01/06 03:36:19;;;;;;;0.20;0.20;;;;;;;;;;4937352;29;20651;-68
2023/01/06 03:38:49;;;;;;;0.20;0.20;;;;;;;;;;4946888;29;20194;-68
2023/01/06 03:41:20;;;;;;;0.20;0.20;;;;;;;;;;4937109;29;20612;-69
2023/01/06 03:43:51;;;;;;;0.20;0.20;;;;;;;;;;4946803;29;20272;-67
2023/01/06 03:46:22;;;;;;;0.20;0.20;;;;;;;;;;4936976;29;20244;-68
2023/01/06 03:48:53;;;;;;;0.20;0.20;;;;;;;;;;4946749;29;20205;-67
2023/01/06 03:51:25;;;;;;;0.20;0.20;;;;;;;;;;4936735;29;20319;-67
2023/01/06 03:53:58;;;;;;;0.20;0.20;;;;;;;;;;4946625;29;20226;-66
2023/01/06 03:56:26;;;;;;;0.20;0.20;;;;;;;;;;4936557;29;20245;-68
2023/01/06 03:58:54;;;;;;;0.20;0.20;;;;;;;;;;4946595;29;20210;-66
2023/01/06 04:01:22;;;;;;;0.20;0.20;;;;;;;;;;4936754;29;20265;-67
2023/01/06 04:03:51;;;;;;;0.20;0.20;;;;;;;;;;4946453;29;20241;-68
2023/01/06 04:06:17;;;;;;;0.10;0.10;;;;;;;;;;4936552;29;20272;-68
2023/01/06 04:08:45;;;;;;;0.20;0.20;;;;;;;;;;4946338;29;20239;-67
2023/01/06 04:12:37;;;;;;;0.10;0.10;;;;;;;;;;4936530;29;20309;-68
2023/01/06 04:13:57;;;;;;;0.20;0.20;;;;;;;;;;4946379;29;20193;-68
2023/01/06 04:16:24;;;;;;;0.40;0.40;;;;;;;;;;4936468;29;20281;-67
2023/01/06 04:18:50;;;;;;;0.20;0.20;;;;;;;;;;4946526;29;20312;-68
2023/01/06 04:21:17;;;;;;;0.20;0.20;;;;;;;;;;4936393;29;20556;-67
2023/01/06 04:23:44;;;;;;;0.20;0.20;;;;;;;;;;4946394;29;20279;-68
2023/01/06 04:26:11;;;;;;;0.20;0.20;;;;;;;;;;4936434;29;20490;-68
2023/01/06 04:28:37;;;;;;;0.93;0.93;;;;;;;;;;4946315;29;20244;-67
2023/01/06 04:31:03;;;;;;;0.20;0.20;;;;;;;;;;4936102;29;20319;-67
2023/01/06 04:33:30;;;;;;;0.30;0.30;;;;;;;;;;4945883;29;20234;-69
2023/01/06 04:35:56;;;;;;;0.20;0.20;;;;;;;;;;4936360;29;20607;-68
2023/01/06 04:38:22;;;;;;;0.30;0.30;;;;;;;;;;4945664;29;20231;-68
2023/01/06 04:40:50;;;;;;;0.20;0.20;;;;;;;;;;4936430;29;20487;-68
2023/01/06 04:43:17;;;;;;;0.20;0.20;;;;;;;;;;4945870;29;20286;-68
2023/01/06 04:45:43;;;;;;;0.10;0.10;;;;;;;;;;4936568;29;20260;-67
2023/01/06 04:48:10;;;;;;;0.20;0.20;;;;;;;;;;4945690;29;20205;-68
2023/01/06 04:50:37;;;;;;;0.20;0.20;;;;;;;;;;4936239;29;20318;-68
2023/01/06 04:53:03;;;;;;;0.20;0.20;;;;;;;;;;4945410;29;20277;-68
2023/01/06 04:55:29;;;;;;;0.20;0.20;;;;;;;;;;4936519;29;20312;-68
2023/01/06 04:57:57;;;;;;;0.20;0.20;;;;;;;;;;4945327;29;20297;-67
2023/01/06 05:00:23;;;;;;;0.20;0.20;;;;;;;;;;4936471;29;20237;-67
2023/01/06 05:02:50;;;;;;;0.20;0.20;;;;;;;;;;4945040;29;20284;-68
2023/01/06 05:05:16;;;;;;;0.20;0.20;;;;;;;;;;4938451;29;20281;-67
2023/01/06 05:07:43;;;;;;;0.20;0.20;;;;;;;;;;4949317;29;20527;-67
2023/01/06 05:10:09;;;;;;;0.10;0.10;;;;;;;;;;4940517;29;20241;-67
2023/01/06 05:12:36;;;;;;;0.10;0.10;;;;;;;;;;4949174;29;20216;-68
2023/01/06 05:15:04;;;;;;;0.20;0.20;;;;;;;;;;4949926;29;20280;-69
2023/01/06 05:17:30;;;;;;;0.20;0.20;;;;;;;;;;4939169;29;20260;-67
2023/01/06 05:19:57;;;;;;;0.20;0.20;;;;;;;;;;4949846;29;20242;-68
2023/01/06 05:22:23;;;;;;;0.20;0.20;;;;;;;;;;4939185;29;20317;-68
2023/01/06 05:24:49;;;;;;;0.20;0.20;;;;;;;;;;4949712;29;20214;-68
2023/01/06 05:27:16;;;;;;;0.20;0.20;;;;;;;;;;4939084;29;20249;-67
2023/01/06 05:29:42;;;;;;;0.20;0.20;;;;;;;;;;4949689;29;20261;-68
2023/01/06 05:32:10;;;;;;;0.20;0.20;;;;;;;;;;4939101;29;20471;-68
2023/01/06 05:34:36;;;;;;;1.17;1.07;;;;;;;;;;4949505;29;20241;-67
2023/01/06 05:37:03;;;;;;;0.20;0.20;;;;;;;;;;4938883;29;20487;-67
2023/01/06 05:39:29;;;;;;;0.10;0.10;;;;;;;;;;4949647;29;20208;-67
2023/01/06 05:41:56;;;;;;;0.20;0.20;;;;;;;;;;4939011;29;20272;-67
2023/01/06 05:44:22;;;;;;;0.10;0.10;;;;;;;;;;4949632;29;20617;-67
2023/01/06 05:46:48;;;;;;;0.20;0.20;;;;;;;;;;4938989;29;20258;-67
2023/01/06 05:49:16;;;;;;;0.20;0.20;;;;;;;;;;4949200;29;20236;-68
2023/01/06 05:51:42;;;;;;;0.20;0.20;;;;;;;;;;4938822;29;20628;-66
2023/01/06 05:54:09;;;;;;;0.13;0.13;;;;;;;;;;4948836;29;20258;-68
2023/01/06 05:56:36;;;;;;;0.63;0.63;;;;;;;;;;4938761;29;20246;-68
2023/01/06 05:59:02;;;;;;;0.20;0.20;;;;;;;;;;4949124;29;20591;-67
2023/01/06 06:01:30;;;;;;;0.20;0.20;;;;;;;;;;4938891;29;20250;-68
2023/01/06 06:03:57;;;;;;;0.20;0.20;;;;;;;;;;4948995;29;20208;-68
2023/01/06 06:06:25;;;;;;;0.20;0.20;;;;;;;;;;4938893;29;20453;-68
2023/01/06 06:08:52;;;;;;;0.10;0.10;;;;;;;;;;4948594;29;20242;-69
2023/01/06 06:11:18;;;;;;;0.20;0.20;;;;;;;;;;4938501;29;20307;-68
2023/01/06 06:13:45;;;;;;;0.20;0.20;;;;;;;;;;4948544;29;20216;-67
2023/01/06 06:16:14;;;;;;;0.17;0.17;;;;;;;;;;4937392;29;20290;-68
2023/01/06 06:18:42;;;;;;;0.20;0.20;;;;;;;;;;4948545;29;20258;-68
2023/01/06 06:21:09;;;;;;;0.10;0.10;;;;;;;;;;4938397;29;20244;-67
2023/01/06 06:23:37;;;;;;;0.17;0.17;;;;;;;;;;4948194;29;20285;-67
2023/01/06 06:26:03;;;;;;;0.10;0.10;;;;;;;;;;4938430;29;20317;-68
2023/01/06 06:28:30;;;;;;;0.17;0.17;;;;;;;;;;4948308;29;20237;-67
2023/01/06 06:31:02;;;;;;;0.10;0.10;;;;;;;;;;4938391;29;20555;-67
2023/01/06 06:33:29;;;;;;;0.10;0.10;;;;;;;;;;4947985;29;20265;-67
2023/01/06 06:35:56;;;;;;;0.10;0.10;;;;;;;;;;4938472;29;20586;-67
2023/01/06 06:38:22;;;;;;;0.10;0.10;;;;;;;;;;4947754;29;20315;-68
2023/01/06 06:40:50;;;;;;;0.20;0.20;;;;;;;;;;4938412;29;20245;-68
2023/01/06 06:43:17;;;;;;;1.40;1.40;;;;;;;;;;4947910;29;20207;-68
2023/01/06 06:45:44;;;;;;;0.13;0.13;;;;;;;;;;4938527;29;20494;-68
2023/01/06 06:48:10;;;;;;;0.20;0.20;;;;;;;;;;4947758;29;20207;-68
2023/01/06 06:50:36;;;;;;;0.20;0.20;;;;;;;;;;4938519;29;20251;-67
2023/01/06 06:53:03;;;;;;;0.20;0.20;;;;;;;;;;4947600;29;20371;-67
2023/01/06 06:55:29;;;;;;;0.10;0.10;;;;;;;;;;4938468;29;20263;-67
2023/01/06 06:57:57;;;;;;;0.20;0.20;;;;;;;;;;4947216;29;20264;-68
2023/01/06 07:00:23;;;;;;;0.10;0.10;;;;;;;;;;4938236;29;20278;-67
2023/01/06 07:02:50;;;;;;;0.20;0.20;;;;;;;;;;4947346;29;20281;-68
2023/01/06 07:05:16;;;;;;;0.10;0.10;;;;;;;;;;4938421;29;20281;-67
2023/01/06 07:07:43;;;;;;;0.13;0.13;;;;;;;;;;4947225;29;20276;-68
2023/01/06 07:10:12;;;;;;;0.17;0.17;;;;;;;;;;4937937;29;20232;-68
2023/01/06 07:12:38;;;;;;;0.10;0.10;;;;;;;;;;4947101;29;20299;-67
2023/01/06 07:15:07;;;;;;;0.10;0.10;;;;;;;;;;4947966;29;20239;-67
2023/01/06 07:17:33;;;;;;;0.20;0.20;;;;;;;;;;4936856;29;20288;-67
2023/01/06 07:20:00;;;;;;;0.10;0.10;;;;;;;;;;4947868;29;20239;-67
2023/01/06 07:22:26;;;;;;;0.20;0.20;;;;;;;;;;4936859;29;20271;-68
2023/01/06 07:24:52;;;;;;;0.20;0.20;;;;;;;;;;4947816;29;20215;-67
2023/01/06 07:27:19;;;;;;;0.20;0.20;;;;;;;;;;4936677;29;20253;-68
2023/01/06 07:29:45;;;;;;;0.10;0.10;;;;;;;;;;4947561;29;20595;-67
2023/01/06 07:32:13;;;;;;;0.20;0.20;;;;;;;;;;4936971;29;20567;-68
2023/01/06 07:34:39;;;;;;;0.20;0.20;;;;;;;;;;4947667;29;20276;-69
2023/01/06 07:37:05;;;;;;;0.10;0.10;;;;;;;;;;4936811;29;20272;-68
2023/01/06 07:39:32;;;;;;;0.20;0.20;;;;;;;;;;4947479;29;20234;-67
2023/01/06 07:41:58;;;;;;;0.10;0.10;;;;;;;;;;4936739;29;20274;-68
2023/01/06 07:44:24;;;;;;;0.10;0.10;;;;;;;;;;4947106;29;20285;-68
2023/01/06 07:46:51;;;;;;;0.20;0.20;;;;;;;;;;4936599;29;20253;-68
2023/01/06 07:49:18;;;;;;;0.10;0.10;;;;;;;;;;4946976;29;20217;-66
2023/01/06 07:51:45;;;;;;;0.10;0.10;;;;;;;;;;4936671;29;20565;-69
2023/01/06 07:54:11;;;;;;;0.20;0.20;;;;;;;;;;4946838;29;20220;-69
2023/01/06 07:56:37;;;;;;;0.10;0.10;;;;;;;;;;4936736;29;20597;-69
2023/01/06 07:59:04;;;;;;;0.17;0.17;;;;;;;;;;4947336;29;20469;-68
2023/01/06 08:01:30;;;;;;;0.20;0.20;;;;;;;;;;4936389;29;20243;-70
2023/01/06 08:03:57;;;;;;;0.10;0.10;;;;;;;;;;4946786;29;20251;-70
2023/01/06 08:06:24;;;;;;;0.10;0.10;;;;;;;;;;4936786;29;20431;-68
2023/01/06 08:08:51;;;;;;;0.10;0.10;;;;;;;;;;4946773;29;20244;-68
2023/01/06 08:11:17;;;;;;;0.10;0.10;;;;;;;;;;4936426;29;20248;-69
2023/01/06 08:13:43;;;;;;;0.10;0.10;;;;;;;;;;4946367;29;20249;-69
2023/01/06 08:16:10;;;;;;;0.20;0.20;;;;;;;;;;4936332;29;20283;-69
2023/01/06 08:18:37;;;;;;;0.30;0.30;;;;;;;;;;4946299;29;20253;-69
2023/01/06 08:21:03;;;;;;;0.10;0.10;;;;;;;;;;4936655;29;20271;-68
2023/01/06 08:23:31;;;;;;;0.10;0.10;;;;;;;;;;4946219;29;20275;-69
2023/01/06 08:26:01;;;;;;;0.10;0.10;;;;;;;;;;4936207;29;20254;-69
2023/01/06 08:28:27;;;;;;;0.20;0.20;;;;;;;;;;4946109;29;20218;-68
2023/01/06 08:30:54;;;;;;;0.13;0.13;;;;;;;;;;4936267;29;20325;-69
2023/01/06 08:33:22;;;;;;;0.20;0.20;;;;;;;;;;4946018;29;20239;-70
2023/01/06 08:35:49;;;;;;;0.27;0.27;;;;;;;;;;4936402;29;20432;-68
2023/01/06 08:38:15;;;;;;;0.10;0.10;;;;;;;;;;4945665;29;20231;-69
2023/01/06 08:40:44;;;;;;;0.10;0.10;;;;;;;;;;4935945;29;20301;-69
2023/01/06 08:43:10;;;;;;;0.10;0.10;;;;;;;;;;4945651;29;20214;-69
2023/01/06 08:45:38;;;;;;;0.40;0.40;;;;;;;;;;4936529;29;20243;-68
2023/01/06 08:48:04;;;;;;;0.13;0.13;;;;;;;;;;4945710;29;20276;-69
2023/01/06 08:50:31;;;;;;;0.17;0.17;;;;;;;;;;4936460;29;20274;-69
2023/01/06 08:52:57;;;;;;;0.20;0.20;;;;;;;;;;4945534;29;20436;-68
2023/01/06 08:55:23;;;;;;;0.20;0.20;;;;;;;;;;4936558;29;20208;-69
2023/01/06 08:57:51;;;;;;;0.20;0.20;;;;;;;;;;4945448;29;20377;-68
2023/01/06 09:00:18;;;;;;;0.20;0.20;;;;;;;;;;4936401;29;20242;-69
2023/01/06 09:02:44;;;;;;;0.50;0.50;;;;;;;;;;4945186;29;20240;-69
2023/01/06 09:05:11;;;;;;;0.30;0.30;;;;;;;;;;4936394;29;20211;-68
2023/01/06 09:07:37;;;;;;;0.10;0.10;;;;;;;;;;4945157;29;20217;-69
2023/01/06 09:10:04;;;;;;;0.10;0.10;;;;;;;;;;4946064;29;20276;-69
2023/01/06 09:12:30;;;;;;;0.30;0.30;;;;;;;;;;4935658;29;20373;-69
2023/01/06 09:14:58;;;;;;;0.20;0.20;;;;;;;;;;4946335;29;20574;-69
2023/01/06 09:17:24;;;;;;;0.10;0.10;;;;;;;;;;4935592;29;20501;-70
2023/01/06 09:19:51;;;;;;;0.10;0.10;;;;;;;;;;4946225;29;20232;-69
2023/01/06 09:22:17;;;;;;;0.20;0.20;;;;;;;;;;4935384;29;20303;-69
2023/01/06 09:24:43;;;;;;;0.10;0.10;;;;;;;;;;4945846;29;20224;-70
2023/01/06 09:27:10;;;;;;;3.60;3.40;;;;;;;;;;4935882;29;20309;-68
2023/01/06 09:29:36;;;;;;;0.10;0.10;;;;;;;;;;4946755;29;20211;-70
2023/01/06 09:32:05;;;;;;;0.73;0.73;;;;;;;;;;4935382;29;20263;-69
2023/01/06 09:34:31;;;;;;;0.10;0.10;;;;;;;;;;4946129;29;20215;-69
2023/01/06 09:36:57;;;;;;;0.10;0.10;;;;;;;;;;4935172;29;20284;-69
2023/01/06 09:39:24;;;;;;;0.10;0.10;;;;;;;;;;4945630;29;20233;-70
2023/01/06 09:42:08;;;;;;;0.40;0.40;;;;;;;;;;4935292;29;20278;-69
2023/01/06 09:44:36;;;;;;;0.10;0.10;;;;;;;;;;4916940;29;20207;-69
2023/01/06 09:47:03;;;;;;;0.10;0.10;;;;;;;;;;4935075;29;20487;-70
2023/01/06 09:49:36;;;;;;;0.10;0.10;;;;;;;;;;4945973;29;20291;-70
2023/01/06 09:52:04;;;;;;;0.10;0.10;;;;;;;;;;4938271;29;20378;-70
2023/01/06 09:54:33;;;;;;;0.10;0.10;;;;;;;;;;4949430;29;20231;-69
2023/01/06 09:57:02;;;;;;;0.10;0.10;;;;;;;;;;4938705;29;20259;-69
2023/01/06 09:59:31;;;;;;;0.10;0.10;;;;;;;;;;4949262;29;20254;-69
2023/01/06 10:01:59;;;;;;;0.10;0.10;;;;;;;;;;4938618;29;20303;-70
2023/01/06 10:04:26;;;;;;;0.10;0.10;;;;;;;;;;4948904;29;20208;-69
2023/01/06 10:06:55;;;;;;;0.27;0.27;;;;;;;;;;4938381;29;20310;-69
2023/01/06 10:09:24;;;;;;;0.10;0.10;;;;;;;;;;4948860;29;20235;-69
2023/01/06 10:11:57;;;;;;;0.20;0.20;;;;;;;;;;4938429;29;20267;-70
2023/01/06 10:14:32;;;;;;;0.20;0.20;;;;;;;;;;4949073;29;20385;-69
2023/01/06 10:17:33;;;;;;;;;;;;;;;;;;;;;
2023/01/06 10:20:06;;;;;;;0.10;0.10;;;;;;;;;;4949256;29;20227;-70
2023/01/06 10:22:40;;;;;;;0.20;0.20;;;;;;;;;;4938196;29;20227;-69
2023/01/06 10:25:10;;;;;;;0.53;0.53;;;;;;;;;;4946252;29;20237;-69
2023/01/06 10:27:37;;;;;;;0.20;0.20;;;;;;;;;;4947524;29;20291;-68
2023/01/06 10:30:04;;;;;;;0.20;0.20;;;;;;;;;;4948347;29;20277;-69
2023/01/06 10:32:32;;;;;;;0.10;0.10;;;;;;;;;;4937924;29;20252;-69
2023/01/06 10:34:59;;;;;;;0.10;0.10;;;;;;;;;;4948860;29;20211;-70
2023/01/06 10:37:26;;;;;;;0.10;0.10;;;;;;;;;;4937850;29;20306;-69
2023/01/06 10:39:59;;;;;;;0.20;0.20;;;;;;;;;;4948868;29;20302;-69
2023/01/06 10:45:13;;;;;;;0.20;0.20;;;;;;;;;;4939112;29;20234;-69
2023/01/06 10:47:40;;;;;;;0.10;0.10;;;;;;;;;;4947636;29;20199;-68
2023/01/06 10:50:07;;;;;;;0.20;0.20;;;;;;;;;;4944320;29;20204;-69
2023/01/06 10:52:35;;;;;;;0.30;0.30;;;;;;;;;;4947292;29;20227;-70
2023/01/06 10:55:05;;;;;;;0.10;0.10;;;;;;;;;;4948607;29;20338;-70
2023/01/06 10:57:33;;;;;;;0.20;0.20;;;;;;;;;;4937507;29;20602;-68
2023/01/06 11:00:12;;;;;;;0.10;0.10;;;;;;;;;;4948549;29;20298;-68
2023/01/06 11:02:41;;;;;;;0.47;0.37;;;;;;;;;;4936572;29;20216;-68
2023/01/06 11:05:12;;;;;;;0.10;0.10;;;;;;;;;;4940875;29;20215;-68
2023/01/06 11:07:44;;;;;;;0.13;0.13;;;;;;;;;;4947007;29;20278;-69
2023/01/06 11:10:21;;;;;;;0.20;0.20;;;;;;;;;;4938753;29;20276;-70
2023/01/06 11:12:47;;;;;;;0.10;0.10;;;;;;;;;;4947324;29;20447;-70
2023/01/06 11:15:19;;;;;;;0.10;0.10;;;;;;;;;;4938432;29;20235;-70
2023/01/06 11:17:46;;;;;;;0.10;0.10;;;;;;;;;;4947205;29;20415;-68
2023/01/06 11:20:27;;;;;;;0.10;0.10;;;;;;;;;;4938317;29;20232;-70
2023/01/06 11:22:53;;;;;;;0.20;0.20;;;;;;;;;;4947151;29;20530;-70
2023/01/06 11:25:29;;;;;;;0.20;0.20;;;;;;;;;;4938144;29;20239;-69
2023/01/06 11:28:29;;;;;;;0.17;0.17;;;;;;;;;;4947106;29;20518;-68
2023/01/06 11:30:58;;;;;;;0.20;0.20;;;;;;;;;;4937926;29;20244;-64
2023/01/06 11:33:26;;;;;;;0.30;0.30;;;;;;;;;;4947161;29;20423;-63
2023/01/06 11:35:53;;;;;;;0.10;0.10;;;;;;;;;;4937584;29;20318;-63
2023/01/06 11:38:20;;;;;;;0.20;0.20;;;;;;;;;;4947003;29;20208;-64
2023/01/06 11:40:49;;;;;;;0.17;0.17;;;;;;;;;;4937567;29;20306;-64
2023/01/06 11:43:17;;;;;;;0.10;0.10;;;;;;;;;;4946894;29;20212;-64
2023/01/06 11:45:46;;;;;;;0.20;0.20;;;;;;;;;;4937252;29;20477;-64
2023/01/06 11:48:15;;;;;;;0.10;0.10;;;;;;;;;;4946806;29;20213;-65
2023/01/06 11:50:49;;;;;;;0.10;0.10;;;;;;;;;;4937570;29;20265;-65
2023/01/06 11:53:16;;;;;;;0.20;0.20;;;;;;;;;;4946545;29;20271;-64
2023/01/06 11:55:54;;;;;;;0.20;0.20;;;;;;;;;;4939047;29;20263;-63
2023/01/06 11:58:26;;;;;;;0.10;0.10;;;;;;;;;;4946699;29;20249;-65
2023/01/06 12:00:55;;;;;;;0.10;0.10;;;;;;;;;;4937226;29;20458;-65
2023/01/06 12:03:25;;;;;;;0.10;0.10;;;;;;;;;;4946390;29;20276;-64
2023/01/06 12:05:54;;;;;;;0.10;0.10;;;;;;;;;;4937183;29;20254;-65
2023/01/06 12:08:23;;;;;;;0.00;0.00;;;;;;;;;;4946418;29;20273;-64
2023/01/06 12:10:53;;;;;;;0.10;0.10;;;;;;;;;;4937112;29;20316;-64
2023/01/06 12:13:19;;;;;;;0.20;0.20;;;;;;;;;;4946327;29;20233;-65
2023/01/06 12:15:57;;;;;;;0.10;0.10;;;;;;;;;;4937043;29;20263;-64
2023/01/06 12:35:56;;;;;;;0.10;0.10;;;;;;;;;;5131549;27;20819;-65
2023/01/06 12:38:30;;;;;;;0.10;0.10;;;;;;;;;;5120583;28;20279;-64
2023/01/06 12:41:01;;;;;;;0.10;0.10;;;;;;;;;;5104191;27;20240;-66
2023/01/06 12:43:30;;;;;;;0.10;0.10;;;;;;;;;;5119386;28;20291;-64
2023/01/06 12:45:59;;;;;;;0.10;0.10;;;;;;;;;;5104396;27;20260;-64
2023/01/06 12:48:30;;;;;;;0.20;0.20;;;;;;;;;;5119823;28;20209;-65
2023/01/06 12:51:00;;;;;;;0.10;0.10;;;;;;;;;;5104634;27;20491;-64
2023/01/06 12:53:28;;;;;;;0.10;0.10;;;;;;;;;;5119226;28;20239;-65
2023/01/06 12:56:03;;;;;;;0.10;0.10;;;;;;;;;;5103814;27;20240;-68
2023/01/06 12:58:32;;;;;;;0.10;0.10;;;;;;;;;;5118260;28;20488;-65
2023/01/06 13:01:01;;;;;;;0.13;0.13;;;;;;;;;;5104108;27;20238;-71
2023/01/06 13:03:39;;;;;;;0.10;0.10;;;;;;;;;;5119304;28;20203;-64
2023/01/06 13:06:14;;;;;;;0.10;0.10;;;;;;;;;;5106461;27;20239;-65
2023/01/06 13:08:50;;;;;;;0.20;0.20;;;;;;;;;;5115856;28;20276;-65
2023/01/06 13:11:23;;;;;;;0.10;0.10;;;;;;;;;;5109315;27;20268;-64
2023/01/06 13:13:55;;;;;;;0.10;0.10;;;;;;;;;;5112729;28;20418;-65
2023/01/06 13:16:23;;;;;;;0.10;0.10;;;;;;;;;;5110335;27;20263;-65
2023/01/06 13:19:00;;;;;;;0.10;0.10;;;;;;;;;;5112503;28;20272;-65
2023/01/06 13:21:30;;;;;;;0.30;0.30;;;;;;;;;;5111510;27;20301;-64
2023/01/06 13:24:03;;;;;;;0.37;0.33;;;;;;;;;;5111322;28;20431;-64
2023/01/06 13:26:50;;;;;;;0.10;0.10;;;;;;;;;;5112498;27;20244;-64
2023/01/06 13:29:22;;;;;;;0.10;0.10;;;;;;;;;;5101648;28;20237;-64
2023/01/06 13:31:56;;;;;;;0.13;0.13;;;;;;;;;;5097100;28;20249;-64
2023/01/06 13:34:32;;;;;;;0.20;0.20;;;;;;;;;;5082719;28;20261;-63
2023/01/06 13:37:20;;;;;;;0.10;0.10;;;;;;;;;;5100034;28;20275;-64
2023/01/06 13:39:50;;;;;;;0.10;0.10;;;;;;;;;;5078148;28;20258;-64
2023/01/06 13:42:18;;;;;;;0.30;0.30;;;;;;;;;;5102232;28;20578;-64
2023/01/06 13:44:45;;;;;;;0.10;0.10;;;;;;;;;;5079846;28;20235;-65
2023/01/06 13:47:14;;;;;;;0.10;0.10;;;;;;;;;;5088832;28;20312;-64
2023/01/06 13:49:41;;;;;;;0.10;0.10;;;;;;;;;;5066760;28;20395;-64
2023/01/06 13:52:14;;;;;;;0.23;0.23;;;;;;;;;;5088454;28;20244;-64
2023/01/06 13:55:06;;;;;;;0.10;0.10;;;;;;;;;;5066596;28;20228;-64
2023/01/06 13:57:37;;;;;;;0.10;0.10;;;;;;;;;;5054932;28;20215;-65
2023/01/06 14:00:18;;;;;;;0.10;0.10;;;;;;;;;;5066219;28;20405;-67
2023/01/06 14:03:12;;;;;;;0.20;0.20;;;;;;;;;;5064241;28;20236;-65
2023/01/06 14:05:48;;;;;;;0.20;0.20;;;;;;;;;;5039857;28;20251;-65
2023/01/06 14:08:16;;;;;;;1.30;1.20;;;;;;;;;;5087412;28;20203;-64
2023/01/06 14:10:44;;;;;;;0.10;0.10;;;;;;;;;;5065528;28;20250;-64
2023/01/06 14:13:19;;;;;;;0.20;0.20;;;;;;;;;;5088326;28;20259;-65
2023/01/06 14:15:54;;;;;;;0.10;0.10;;;;;;;;;;5065808;28;20304;-65
2023/01/06 14:18:29;;;;;;;0.20;0.20;;;;;;;;;;5085742;28;20231;-67
2023/01/06 14:21:00;;;;;;;0.20;0.20;;;;;;;;;;5068656;28;20505;-66
2023/01/06 14:23:26;;;;;;;0.30;0.30;;;;;;;;;;5083900;28;20192;-65
2023/01/06 14:25:55;;;;;;;0.10;0.10;;;;;;;;;;5067869;28;20242;-66
2023/01/06 14:28:24;;;;;;;0.10;0.10;;;;;;;;;;5085274;28;20232;-65
2023/01/06 14:30:51;;;;;;;0.10;0.10;;;;;;;;;;5066979;28;20573;-65
2023/01/06 14:33:41;;;;;;;0.10;0.10;;;;;;;;;;5086053;28;20270;-65
2023/01/06 14:36:11;;;;;;;0.13;0.13;;;;;;;;;;5061120;28;20239;-66
2023/01/06 14:38:42;;;;;;;0.10;0.10;;;;;;;;;;5080523;28;20275;-65
2023/01/06 14:41:16;;;;;;;0.10;0.10;;;;;;;;;;5071840;28;20273;-65
2023/01/06 14:43:47;;;;;;;0.30;0.30;;;;;;;;;;5079306;28;20416;-64
2023/01/06 14:46:18;;;;;;;0.10;0.10;;;;;;;;;;5072619;28;20254;-65
2023/01/06 14:48:47;;;;;;;0.10;0.10;;;;;;;;;;5078583;28;20207;-64
2023/01/06 14:51:15;;;;;;;0.10;0.10;;;;;;;;;;5072801;28;20286;-65
2023/01/06 14:53:44;;;;;;;0.10;0.10;;;;;;;;;;5078557;28;20391;-65
2023/01/06 14:56:15;;;;;;;0.10;0.10;;;;;;;;;;5072052;28;20234;-65
2023/01/06 14:58:43;;;;;;;0.10;0.10;;;;;;;;;;5077922;28;20227;-65
2023/01/06 15:01:19;;;;;;;0.10;0.10;;;;;;;;;;5071570;28;20484;-65
2023/01/06 15:03:53;;;;;;;0.10;0.10;;;;;;;;;;5077791;28;20235;-65
2023/01/06 15:06:20;;;;;;;0.10;0.10;;;;;;;;;;5074309;28;20233;-66
2023/01/06 15:08:47;;;;;;;0.10;0.10;;;;;;;;;;5077003;28;20243;-65
2023/01/06 15:11:23;;;;;;;0.10;0.10;;;;;;;;;;5072644;28;20235;-64
2023/01/06 15:13:51;;;;;;;0.10;0.10;;;;;;;;;;5076556;28;20203;-65
2023/01/06 15:16:20;;;;;;;0.10;0.10;;;;;;;;;;5073417;28;20260;-65
2023/01/06 15:18:52;;;;;;;0.10;0.10;;;;;;;;;;5077003;28;20204;-65